createdAt,value
2023-04-13T00:00:50.278Z,26.67
2023-04-13T00:01:50.344Z,26.67
2023-04-13T00:02:50.468Z,26.65
2023-04-13T00:03:50.436Z,26.65
2023-04-13T00:04:50.361Z,26.65
2023-04-13T00:05:50.557Z,26.67
2023-04-13T00:06:50.426Z,26.65
2023-04-13T00:07:50.434Z,26.64
2023-04-13T00:08:51.234Z,26.65
2023-04-13T00:09:50.528Z,26.65
2023-04-13T00:10:50.503Z,26.67
2023-04-13T00:11:50.523Z,26.65
2023-04-13T00:12:50.611Z,26.65
2023-04-13T00:13:50.606Z,26.67
2023-04-13T00:14:50.614Z,26.65
2023-04-13T00:15:50.613Z,26.65
2023-04-13T00:16:50.751Z,26.67
2023-04-13T00:17:50.681Z,26.65
2023-04-13T00:18:50.687Z,26.68
2023-04-13T00:19:50.718Z,26.67
2023-04-13T00:20:50.761Z,26.68
2023-04-13T00:21:50.799Z,26.70
2023-04-13T00:22:50.827Z,26.67
2023-04-13T00:23:50.834Z,26.67
2023-04-13T00:24:50.887Z,26.65
2023-04-13T00:25:50.902Z,26.65
2023-04-13T00:26:50.954Z,26.68
2023-04-13T00:27:50.948Z,26.65
2023-04-13T00:28:50.987Z,26.64
2023-04-13T00:29:51.047Z,26.68
2023-04-13T00:30:51.104Z,26.65
2023-04-13T00:31:51.089Z,26.67
2023-04-13T00:32:51.112Z,26.68
2023-04-13T00:33:51.147Z,26.65
2023-04-13T00:34:51.169Z,26.68
2023-04-13T00:35:51.915Z,26.67
2023-04-13T00:36:51.230Z,26.65
2023-04-13T00:37:51.243Z,26.65
2023-04-13T00:38:51.285Z,26.67
2023-04-13T00:39:51.321Z,26.64
2023-04-13T00:40:51.371Z,26.65
2023-04-13T00:41:51.399Z,26.64
2023-04-13T00:42:51.390Z,26.65
2023-04-13T00:43:51.516Z,26.65
2023-04-13T00:44:51.451Z,26.65
2023-04-13T00:45:51.519Z,26.65
2023-04-13T00:46:51.628Z,26.67
2023-04-13T00:47:51.536Z,26.65
2023-04-13T00:48:51.602Z,26.67
2023-04-13T00:49:51.624Z,26.67
2023-04-13T00:50:51.651Z,26.68
2023-04-13T00:51:51.677Z,26.68
2023-04-13T00:52:51.674Z,26.68
2023-04-13T00:53:51.713Z,26.65
2023-04-13T00:54:51.798Z,26.70
2023-04-13T00:55:51.843Z,26.70
2023-04-13T00:56:51.915Z,26.67
2023-04-13T00:57:51.840Z,26.68
2023-04-13T00:58:51.932Z,26.65
2023-04-13T00:59:51.860Z,26.68
2023-04-13T01:00:51.898Z,26.68
2023-04-13T01:01:51.978Z,26.67
2023-04-13T01:02:52.119Z,26.68
2023-04-13T01:03:52.019Z,26.65
2023-04-13T01:04:52.199Z,26.67
2023-04-13T01:05:52.057Z,26.68
2023-04-13T01:06:52.183Z,26.70
2023-04-13T01:07:52.145Z,26.70
2023-04-13T01:08:54.016Z,26.68
2023-04-13T01:09:52.240Z,26.68
2023-04-13T01:10:52.291Z,26.68
2023-04-13T01:11:52.357Z,26.68
2023-04-13T01:12:52.412Z,26.70
2023-04-13T01:13:52.523Z,26.68
2023-04-13T01:14:52.497Z,26.68
2023-04-13T01:15:52.588Z,26.68
2023-04-13T01:16:52.614Z,26.70
2023-04-13T01:17:53.512Z,26.65
2023-04-13T01:18:52.747Z,26.68
2023-04-13T01:19:52.800Z,26.67
2023-04-13T01:20:52.816Z,26.65
2023-04-13T01:21:52.854Z,26.67
2023-04-13T01:22:52.898Z,26.68
2023-04-13T01:23:52.966Z,26.65
2023-04-13T01:24:52.995Z,26.64
2023-04-13T01:25:53.114Z,26.64
2023-04-13T01:26:53.193Z,26.65
2023-04-13T01:27:53.173Z,26.64
2023-04-13T01:28:53.271Z,26.62
2023-04-13T01:29:53.250Z,26.61
2023-04-13T01:30:53.310Z,26.64
2023-04-13T01:31:53.421Z,26.65
2023-04-13T01:32:53.495Z,26.61
2023-04-13T01:33:53.481Z,26.64
2023-04-13T01:34:53.546Z,26.64
2023-04-13T01:35:53.595Z,26.62
2023-04-13T01:36:54.549Z,26.64
2023-04-13T01:37:53.684Z,26.64
2023-04-13T01:38:53.777Z,26.64
2023-04-13T01:39:53.766Z,26.64
2023-04-13T01:40:53.877Z,26.64
2023-04-13T01:41:53.875Z,26.61
2023-04-13T01:42:53.983Z,26.59
2023-04-13T01:43:54.085Z,26.62
2023-04-13T01:44:54.047Z,26.61
2023-04-13T01:45:54.128Z,26.61
2023-04-13T01:46:54.369Z,26.61
2023-04-13T01:47:54.274Z,26.56
2023-04-13T01:48:54.338Z,26.61
2023-04-13T01:49:54.351Z,26.58
2023-04-13T01:50:54.470Z,26.62
2023-04-13T01:51:54.477Z,26.59
2023-04-13T01:52:54.508Z,26.59
2023-04-13T01:53:54.588Z,26.59
2023-04-13T01:54:54.630Z,26.59
2023-04-13T01:55:54.741Z,26.58
2023-04-13T01:56:54.741Z,26.59
2023-04-13T01:57:54.821Z,26.58
2023-04-13T01:58:54.933Z,26.56
2023-04-13T01:59:54.925Z,26.58
2023-04-13T02:00:55.054Z,26.56
2023-04-13T02:01:55.080Z,26.55
2023-04-13T02:02:56.060Z,26.56
2023-04-13T02:03:55.301Z,26.58
2023-04-13T02:04:55.225Z,26.59
2023-04-13T02:05:55.265Z,26.54
2023-04-13T02:06:55.312Z,26.56
2023-04-13T02:07:55.405Z,26.56
2023-04-13T02:08:55.521Z,26.55
2023-04-13T02:09:55.499Z,26.56
2023-04-13T02:10:55.564Z,26.58
2023-04-13T02:11:55.628Z,26.55
2023-04-13T02:12:55.773Z,26.56
2023-04-13T02:13:55.767Z,26.59
2023-04-13T02:14:55.818Z,26.54
2023-04-13T02:15:55.912Z,26.54
2023-04-13T02:16:55.988Z,26.54
2023-04-13T02:17:56.015Z,26.56
2023-04-13T02:18:56.084Z,26.55
2023-04-13T02:19:56.460Z,26.54
2023-04-13T02:20:56.158Z,26.55
2023-04-13T02:21:56.250Z,26.54
2023-04-13T02:22:56.268Z,26.55
2023-04-13T02:23:56.510Z,26.55
2023-04-13T02:24:56.411Z,26.51
2023-04-13T02:25:56.490Z,26.52
2023-04-13T02:26:56.529Z,26.55
2023-04-13T02:27:56.643Z,26.54
2023-04-13T02:28:56.650Z,26.52
2023-04-13T02:29:56.720Z,26.52
2023-04-13T02:30:56.768Z,26.52
2023-04-13T02:31:56.866Z,26.52
2023-04-13T02:32:56.929Z,26.52
2023-04-13T02:33:57.090Z,26.50
2023-04-13T02:34:57.044Z,26.51
2023-04-13T02:35:57.095Z,26.50
2023-04-13T02:36:57.146Z,26.52
2023-04-13T02:37:57.299Z,26.52
2023-04-13T02:38:57.283Z,26.52
2023-04-13T02:39:57.339Z,26.52
2023-04-13T02:40:57.449Z,26.51
2023-04-13T02:41:57.469Z,26.51
2023-04-13T02:42:57.564Z,26.51
2023-04-13T02:43:57.934Z,26.52
2023-04-13T02:44:57.665Z,26.51
2023-04-13T02:45:57.762Z,26.50
2023-04-13T02:46:57.798Z,26.54
2023-04-13T02:47:57.938Z,26.52
2023-04-13T02:48:57.947Z,26.50
2023-04-13T02:49:58.011Z,26.51
2023-04-13T02:50:58.079Z,26.50
2023-04-13T02:51:58.233Z,26.50
2023-04-13T02:52:58.208Z,26.52
2023-04-13T02:53:58.321Z,26.48
2023-04-13T02:54:58.369Z,26.50
2023-04-13T02:55:58.427Z,26.50
2023-04-13T02:56:58.436Z,26.50
2023-04-13T02:57:58.466Z,26.50
2023-04-13T02:58:58.491Z,26.50
2023-04-13T02:59:58.579Z,26.48
2023-04-13T03:00:58.594Z,26.48
2023-04-13T03:01:58.754Z,26.52
2023-04-13T03:02:58.665Z,26.50
2023-04-13T03:03:58.773Z,26.51
2023-04-13T03:04:58.781Z,26.50
2023-04-13T03:05:58.740Z,26.50
2023-04-13T03:06:58.790Z,26.51
2023-04-13T03:07:58.812Z,26.48
2023-04-13T03:08:58.774Z,26.50
2023-04-13T03:09:58.806Z,26.50
2023-04-13T03:10:58.833Z,26.50
2023-04-13T03:11:58.914Z,26.48
2023-04-13T03:12:58.974Z,26.50
2023-04-13T03:13:59.574Z,26.48
2023-04-13T03:15:01.773Z,26.50
2023-04-13T03:15:59.071Z,26.50
2023-04-13T03:16:59.137Z,26.51
2023-04-13T03:17:59.277Z,26.50
2023-04-13T03:18:59.184Z,26.50
2023-04-13T03:19:59.218Z,26.51
2023-04-13T03:20:59.222Z,26.50
2023-04-13T03:21:59.245Z,26.50
2023-04-13T03:22:59.330Z,26.48
2023-04-13T03:23:59.672Z,26.48
2023-04-13T03:24:59.397Z,26.48
2023-04-13T03:25:59.365Z,26.50
2023-04-13T03:26:59.359Z,26.50
2023-04-13T03:27:59.399Z,26.51
2023-04-13T03:28:59.420Z,26.50
2023-04-13T03:29:59.476Z,26.51
2023-04-13T03:30:59.545Z,26.48
2023-04-13T03:31:59.513Z,26.50
2023-04-13T03:32:59.636Z,26.50
2023-04-13T03:33:59.698Z,26.50
2023-04-13T03:34:59.618Z,26.48
2023-04-13T03:35:59.604Z,26.50
2023-04-13T03:36:59.628Z,26.50
2023-04-13T03:37:59.650Z,26.48
2023-04-13T03:38:59.660Z,26.48
2023-04-13T03:39:59.695Z,26.48
2023-04-13T03:40:59.725Z,26.48
2023-04-13T03:41:59.748Z,26.48
2023-04-13T03:42:59.760Z,26.48
2023-04-13T03:44:00.054Z,26.48
2023-04-13T03:44:59.803Z,26.48
2023-04-13T03:45:59.856Z,26.47
2023-04-13T03:46:59.848Z,26.47
2023-04-13T03:47:59.988Z,26.47
2023-04-13T03:48:59.953Z,26.47
2023-04-13T03:49:59.962Z,26.47
2023-04-13T03:50:59.957Z,26.45
2023-04-13T03:51:59.988Z,26.47
2023-04-13T03:53:00.046Z,26.47
2023-04-13T03:54:00.497Z,26.45
2023-04-13T03:55:00.073Z,26.48
2023-04-13T03:56:00.141Z,26.47
2023-04-13T03:57:00.183Z,26.45
2023-04-13T03:58:00.141Z,26.45
2023-04-13T03:59:00.150Z,26.47
2023-04-13T04:00:00.205Z,26.45
2023-04-13T04:01:00.209Z,26.48
2023-04-13T04:02:00.254Z,26.47
2023-04-13T04:03:00.343Z,26.48
2023-04-13T04:04:00.692Z,26.44
2023-04-13T04:05:00.436Z,26.45
2023-04-13T04:06:00.321Z,26.45
2023-04-13T04:07:00.355Z,26.47
2023-04-13T04:08:00.369Z,26.47
2023-04-13T04:09:00.396Z,26.47
2023-04-13T04:10:00.428Z,26.45
2023-04-13T04:11:00.494Z,26.48
2023-04-13T04:12:00.466Z,26.47
2023-04-13T04:13:00.494Z,26.47
2023-04-13T04:14:00.784Z,26.45
2023-04-13T04:15:00.547Z,26.45
2023-04-13T04:16:00.622Z,26.48
2023-04-13T04:17:00.602Z,26.47
2023-04-13T04:18:00.699Z,26.45
2023-04-13T04:19:00.717Z,26.47
2023-04-13T04:20:00.677Z,26.50
2023-04-13T04:21:02.562Z,26.50
2023-04-13T04:22:00.747Z,26.48
2023-04-13T04:23:00.757Z,26.48
2023-04-13T04:24:00.861Z,26.48
2023-04-13T04:25:00.786Z,26.45
2023-04-13T04:26:00.983Z,26.45
2023-04-13T04:27:00.897Z,26.47
2023-04-13T04:28:00.960Z,26.44
2023-04-13T04:29:01.008Z,26.44
2023-04-13T04:30:01.065Z,26.45
2023-04-13T04:31:01.103Z,26.45
2023-04-13T04:32:01.196Z,26.47
2023-04-13T04:33:01.165Z,26.45
2023-04-13T04:34:01.262Z,26.47
2023-04-13T04:35:01.179Z,26.47
2023-04-13T04:36:01.230Z,26.47
2023-04-13T04:37:03.578Z,26.45
2023-04-13T04:38:01.334Z,26.47
2023-04-13T04:39:01.298Z,26.47
2023-04-13T04:40:01.361Z,26.48
2023-04-13T04:41:01.344Z,26.47
2023-04-13T04:42:01.362Z,26.47
2023-04-13T04:43:01.396Z,26.45
2023-04-13T04:44:01.435Z,26.47
2023-04-13T04:45:01.483Z,26.44
2023-04-13T04:46:01.564Z,26.47
2023-04-13T04:47:01.509Z,26.47
2023-04-13T04:48:02.529Z,26.47
2023-04-13T04:49:01.560Z,26.47
2023-04-13T04:50:01.596Z,26.47
2023-04-13T04:51:02.616Z,26.44
2023-04-13T04:52:02.528Z,26.44
2023-04-13T04:53:02.505Z,26.44
2023-04-13T04:54:01.807Z,26.45
2023-04-13T04:55:01.754Z,26.44
2023-04-13T04:56:02.016Z,26.45
2023-04-13T04:57:01.878Z,26.45
2023-04-13T04:58:01.865Z,26.44
2023-04-13T04:59:01.999Z,26.44
2023-04-13T05:00:01.913Z,26.45
2023-04-13T05:01:02.429Z,26.45
2023-04-13T05:02:01.924Z,26.44
2023-04-13T05:03:02.065Z,26.44
2023-04-13T05:04:02.530Z,26.44
2023-04-13T05:05:02.049Z,26.45
2023-04-13T05:06:02.058Z,26.45
2023-04-13T05:07:02.217Z,26.45
2023-04-13T05:08:02.069Z,26.45
2023-04-13T05:09:02.141Z,26.44
2023-04-13T05:10:02.299Z,26.47
2023-04-13T05:11:02.205Z,26.47
2023-04-13T05:12:02.233Z,26.44
2023-04-13T05:13:02.280Z,26.45
2023-04-13T05:14:02.381Z,26.44
2023-04-13T05:15:02.405Z,26.48
2023-04-13T05:16:02.425Z,26.47
2023-04-13T05:17:02.380Z,26.45
2023-04-13T05:18:02.446Z,26.45
2023-04-13T05:19:02.659Z,26.44
2023-04-13T05:20:02.490Z,26.44
2023-04-13T05:21:02.501Z,26.45
2023-04-13T05:22:02.537Z,26.45
2023-04-13T05:23:02.592Z,26.44
2023-04-13T05:24:02.596Z,26.44
2023-04-13T05:25:02.641Z,26.43
2023-04-13T05:26:03.568Z,26.44
2023-04-13T05:27:02.759Z,26.44
2023-04-13T05:28:03.523Z,26.45
2023-04-13T05:29:03.559Z,26.44
2023-04-13T05:30:03.626Z,26.44
2023-04-13T05:31:03.665Z,26.44
2023-04-13T05:32:03.036Z,26.41
2023-04-13T05:33:03.082Z,26.47
2023-04-13T05:34:03.153Z,26.47
2023-04-13T05:35:03.125Z,26.47
2023-04-13T05:36:03.897Z,26.47
2023-04-13T05:37:03.099Z,26.44
2023-04-13T05:38:03.431Z,26.47
2023-04-13T05:39:03.205Z,26.48
2023-04-13T05:40:03.206Z,26.45
2023-04-13T05:41:03.231Z,26.48
2023-04-13T05:42:03.220Z,26.47
2023-04-13T05:43:03.229Z,26.48
2023-04-13T05:44:03.284Z,26.47
2023-04-13T05:45:03.291Z,26.47
2023-04-13T05:46:03.389Z,26.48
2023-04-13T05:47:03.551Z,26.47
2023-04-13T05:48:03.913Z,26.47
2023-04-13T05:49:03.512Z,26.47
2023-04-13T05:50:03.436Z,26.47
2023-04-13T05:51:03.534Z,26.47
2023-04-13T05:52:03.546Z,26.48
2023-04-13T05:53:03.566Z,26.50
2023-04-13T05:54:03.655Z,26.51
2023-04-13T05:55:03.669Z,26.47
2023-04-13T05:56:03.683Z,26.48
2023-04-13T05:57:03.752Z,26.48
2023-04-13T05:58:03.844Z,26.47
2023-04-13T05:59:03.883Z,26.47
2023-04-13T06:00:03.954Z,26.47
2023-04-13T06:01:04.024Z,26.48
2023-04-13T06:02:04.100Z,26.45
2023-04-13T06:03:04.326Z,26.45
2023-04-13T06:04:04.371Z,26.47
2023-04-13T06:05:04.237Z,26.47
2023-04-13T06:06:04.307Z,26.48
2023-04-13T06:07:04.335Z,26.48
2023-04-13T06:08:04.378Z,26.48
2023-04-13T06:09:04.487Z,26.48
2023-04-13T06:10:05.037Z,26.50
2023-04-13T06:11:04.656Z,26.50
2023-04-13T06:12:04.977Z,26.51
2023-04-13T06:13:04.811Z,26.48
2023-04-13T06:14:04.870Z,26.51
2023-04-13T06:15:04.838Z,26.47
2023-04-13T06:16:05.145Z,26.50
2023-04-13T06:17:05.335Z,26.48
2023-04-13T06:18:05.009Z,26.50
2023-04-13T06:19:05.254Z,26.51
2023-04-13T06:20:05.064Z,26.50
2023-04-13T06:21:05.163Z,26.47
2023-04-13T06:22:05.080Z,26.50
2023-04-13T06:23:05.020Z,26.51
2023-04-13T06:24:05.077Z,26.51
2023-04-13T06:25:05.059Z,26.52
2023-04-13T06:26:05.866Z,26.51
2023-04-13T06:27:05.118Z,26.51
2023-04-13T06:28:05.127Z,26.51
2023-04-13T06:29:05.200Z,26.51
2023-04-13T06:30:05.193Z,26.51
2023-04-13T06:31:05.371Z,26.50
2023-04-13T06:32:05.244Z,26.52
2023-04-13T06:33:05.385Z,26.52
2023-04-13T06:34:05.421Z,26.54
2023-04-13T06:35:05.322Z,26.52
2023-04-13T06:36:05.339Z,26.54
2023-04-13T06:37:10.739Z,26.52
2023-04-13T06:38:05.467Z,26.55
2023-04-13T06:39:05.441Z,26.55
2023-04-13T06:40:06.305Z,26.55
2023-04-13T06:41:05.653Z,26.52
2023-04-13T06:42:05.580Z,26.54
2023-04-13T06:43:08.868Z,26.56
2023-04-13T06:44:06.760Z,26.54
2023-04-13T06:45:05.721Z,26.55
2023-04-13T06:46:05.783Z,26.54
2023-04-13T06:47:05.848Z,26.56
2023-04-13T06:48:06.300Z,26.56
2023-04-13T06:49:06.868Z,26.56
2023-04-13T06:50:05.836Z,26.59
2023-04-13T06:51:06.715Z,26.58
2023-04-13T06:52:05.855Z,26.58
2023-04-13T06:53:05.910Z,26.59
2023-04-13T06:54:05.910Z,26.61
2023-04-13T06:55:05.960Z,26.59
2023-04-13T06:56:05.967Z,26.62
2023-04-13T06:57:06.024Z,26.55
2023-04-13T06:58:06.059Z,26.58
2023-04-13T06:59:06.817Z,26.61
2023-04-13T07:00:12.650Z,26.64
2023-04-13T07:01:07.610Z,26.61
2023-04-13T07:02:06.790Z,26.64
2023-04-13T07:03:06.595Z,26.58
2023-04-13T07:04:08.684Z,26.62
2023-04-13T07:05:07.903Z,26.61
2023-04-13T07:06:06.549Z,26.64
2023-04-13T07:07:10.803Z,26.65
2023-04-13T07:08:06.706Z,26.70
2023-04-13T07:09:08.641Z,26.71
2023-04-13T07:10:06.662Z,26.72
2023-04-13T07:11:06.592Z,26.75
2023-04-13T07:12:12.740Z,26.77
2023-04-13T07:13:06.625Z,26.75
2023-04-13T07:14:06.664Z,26.75
2023-04-13T07:15:06.659Z,26.75
2023-04-13T07:16:06.824Z,26.78
2023-04-13T07:17:06.727Z,26.81
2023-04-13T07:18:06.776Z,26.78
2023-04-13T07:19:07.016Z,26.78
2023-04-13T07:20:06.932Z,26.79
2023-04-13T07:21:08.426Z,26.79
2023-04-13T07:22:07.047Z,26.81
2023-04-13T07:23:06.919Z,26.79
2023-04-13T07:24:06.826Z,26.81
2023-04-13T07:25:06.977Z,26.82
2023-04-13T07:26:07.013Z,26.85
2023-04-13T07:27:08.225Z,26.82
2023-04-13T07:28:07.241Z,26.86
2023-04-13T07:29:07.041Z,26.86
2023-04-13T07:30:07.117Z,26.88
2023-04-13T07:31:07.159Z,26.86
2023-04-13T07:32:07.144Z,26.88
2023-04-13T07:33:07.225Z,26.86
2023-04-13T07:34:07.565Z,26.90
2023-04-13T07:35:07.357Z,26.92
2023-04-13T07:36:07.097Z,26.93
2023-04-13T07:37:07.156Z,26.90
2023-04-13T07:38:07.177Z,26.92
2023-04-13T07:39:07.182Z,26.83
2023-04-13T07:40:07.354Z,26.85
2023-04-13T07:41:07.278Z,26.83
2023-04-13T07:42:07.256Z,26.85
2023-04-13T07:43:07.506Z,26.89
2023-04-13T07:44:07.271Z,26.88
2023-04-13T07:45:09.397Z,26.90
2023-04-13T07:46:08.104Z,26.89
2023-04-13T07:47:07.523Z,26.88
2023-04-13T07:48:07.408Z,26.88
2023-04-13T07:49:07.485Z,26.90
2023-04-13T07:50:07.368Z,26.92
2023-04-13T07:51:07.392Z,26.92
2023-04-13T07:52:07.507Z,26.93
2023-04-13T07:53:07.447Z,26.92
2023-04-13T07:54:07.419Z,26.92
2023-04-13T07:55:07.493Z,26.93
2023-04-13T07:56:07.509Z,26.93
2023-04-13T07:57:07.545Z,26.90
2023-04-13T07:58:07.553Z,26.93
2023-04-13T07:59:07.525Z,26.92
2023-04-13T08:00:07.596Z,26.90
2023-04-13T08:01:07.606Z,26.90
2023-04-13T08:02:07.737Z,26.93
2023-04-13T08:03:07.825Z,26.93
2023-04-13T08:04:07.815Z,26.93
2023-04-13T08:05:07.950Z,26.92
2023-04-13T08:06:07.811Z,26.92
2023-04-13T08:07:07.653Z,26.89
2023-04-13T08:08:07.781Z,26.90
2023-04-13T08:09:07.756Z,26.88
2023-04-13T08:10:07.691Z,26.89
2023-04-13T08:11:07.729Z,26.88
2023-04-13T08:12:08.644Z,26.89
2023-04-13T08:13:07.849Z,26.89
2023-04-13T08:14:08.070Z,26.89
2023-04-13T08:15:08.093Z,26.89
2023-04-13T08:16:08.181Z,26.88
2023-04-13T08:17:08.104Z,26.85
2023-04-13T08:18:08.165Z,26.86
2023-04-13T08:19:08.194Z,26.83
2023-04-13T08:20:08.412Z,26.83
2023-04-13T08:21:08.321Z,26.82
2023-04-13T08:22:08.477Z,26.86
2023-04-13T08:23:10.114Z,26.83
2023-04-13T08:24:08.612Z,26.88
2023-04-13T08:25:08.556Z,26.90
2023-04-13T08:26:08.553Z,26.92
2023-04-13T08:27:08.652Z,26.93
2023-04-13T08:28:08.581Z,26.93
2023-04-13T08:29:08.650Z,26.96
2023-04-13T08:30:08.615Z,27.00
2023-04-13T08:31:08.688Z,26.99
2023-04-13T08:32:08.699Z,27.02
2023-04-13T08:33:08.647Z,27.05
2023-04-13T08:34:08.612Z,27.05
2023-04-13T08:35:08.691Z,27.07
2023-04-13T08:36:08.660Z,27.07
2023-04-13T08:37:08.685Z,27.10
2023-04-13T08:38:08.653Z,27.10
2023-04-13T08:39:08.665Z,27.09
2023-04-13T08:40:08.658Z,27.07
2023-04-13T08:41:08.756Z,27.09
2023-04-13T08:42:08.708Z,27.09
2023-04-13T08:43:08.873Z,27.10
2023-04-13T08:44:08.750Z,27.09
2023-04-13T08:45:08.734Z,27.13
2023-04-13T08:46:08.791Z,27.09
2023-04-13T08:47:08.839Z,27.10
2023-04-13T08:48:08.828Z,27.09
2023-04-13T08:49:08.976Z,27.11
2023-04-13T08:50:09.123Z,27.11
2023-04-13T08:51:09.059Z,27.09
2023-04-13T08:52:09.069Z,27.09
2023-04-13T08:53:10.210Z,27.06
2023-04-13T08:54:09.187Z,27.00
2023-04-13T08:55:10.274Z,26.92
2023-04-13T08:56:09.419Z,26.92
2023-04-13T08:57:09.585Z,26.90
2023-04-13T08:58:09.564Z,26.93
2023-04-13T08:59:09.649Z,26.95
2023-04-13T09:00:09.706Z,26.98
2023-04-13T09:01:10.088Z,27.02
2023-04-13T09:02:10.863Z,27.00
2023-04-13T09:03:12.678Z,26.99
2023-04-13T09:04:10.209Z,27.05
2023-04-13T09:05:10.154Z,27.06
2023-04-13T09:06:10.025Z,27.06
2023-04-13T09:07:10.521Z,27.09
2023-04-13T09:08:10.166Z,27.09
2023-04-13T09:09:10.101Z,27.10
2023-04-13T09:10:10.277Z,27.13
2023-04-13T09:11:15.118Z,27.11
2023-04-13T09:12:10.346Z,27.17
2023-04-13T09:13:10.191Z,27.20
2023-04-13T09:14:10.179Z,27.19
2023-04-13T09:15:10.217Z,27.22
2023-04-13T09:16:10.216Z,27.20
2023-04-13T09:17:10.507Z,27.20
2023-04-13T09:18:10.435Z,27.22
2023-04-13T09:19:11.443Z,27.22
2023-04-13T09:20:10.325Z,27.22
2023-04-13T09:21:10.357Z,27.22
2023-04-13T09:22:10.326Z,27.23
2023-04-13T09:23:10.698Z,27.26
2023-04-13T09:24:11.120Z,27.22
2023-04-13T09:25:12.117Z,27.26
2023-04-13T09:26:10.817Z,27.26
2023-04-13T09:27:10.452Z,27.25
2023-04-13T09:28:10.523Z,27.26
2023-04-13T09:29:10.609Z,27.23
2023-04-13T09:30:10.482Z,27.26
2023-04-13T09:31:10.661Z,27.25
2023-04-13T09:32:10.528Z,27.27
2023-04-13T09:33:10.763Z,27.27
2023-04-13T09:34:10.676Z,27.29
2023-04-13T09:35:11.134Z,27.27
2023-04-13T09:36:10.856Z,27.30
2023-04-13T09:37:10.822Z,27.29
2023-04-13T09:38:10.936Z,27.32
2023-04-13T09:39:11.008Z,27.29
2023-04-13T09:40:11.084Z,27.27
2023-04-13T09:41:11.255Z,27.30
2023-04-13T09:42:11.277Z,27.29
2023-04-13T09:43:11.292Z,27.30
2023-04-13T09:44:11.367Z,27.30
2023-04-13T09:45:11.467Z,27.27
2023-04-13T09:46:11.641Z,27.29
2023-04-13T09:47:11.668Z,27.27
2023-04-13T09:48:11.740Z,27.29
2023-04-13T09:49:12.003Z,27.29
2023-04-13T09:50:11.940Z,27.25
2023-04-13T09:51:12.029Z,27.27
2023-04-13T09:52:12.109Z,27.27
2023-04-13T09:53:12.263Z,27.27
2023-04-13T09:54:12.346Z,27.26
2023-04-13T09:55:12.292Z,27.26
2023-04-13T09:56:12.360Z,27.23
2023-04-13T09:57:12.370Z,27.22
2023-04-13T09:58:12.322Z,27.25
2023-04-13T09:59:12.404Z,27.22
2023-04-13T10:00:12.433Z,27.22
2023-04-13T10:01:12.489Z,27.19
2023-04-13T10:02:13.255Z,27.19
2023-04-13T10:03:12.626Z,27.17
2023-04-13T10:04:12.785Z,27.17
2023-04-13T10:05:12.686Z,27.14
2023-04-13T10:06:12.870Z,27.17
2023-04-13T10:07:12.818Z,27.14
2023-04-13T10:08:13.000Z,27.17
2023-04-13T10:09:13.076Z,27.14
2023-04-13T10:10:13.175Z,27.14
2023-04-13T10:11:13.131Z,27.13
2023-04-13T10:12:14.205Z,27.10
2023-04-13T10:13:21.617Z,27.06
2023-04-13T10:14:14.510Z,27.06
2023-04-13T10:15:13.501Z,27.07
2023-04-13T10:16:13.479Z,27.03
2023-04-13T10:17:13.362Z,27.02
2023-04-13T10:18:13.453Z,27.02
2023-04-13T10:19:14.784Z,27.02
2023-04-13T10:20:13.691Z,27.03
2023-04-13T10:21:13.491Z,27.00
2023-04-13T10:22:13.461Z,26.99
2023-04-13T10:23:13.528Z,26.99
2023-04-13T10:24:13.581Z,27.00
2023-04-13T10:25:18.661Z,26.98
2023-04-13T10:26:14.608Z,26.96
2023-04-13T10:27:13.602Z,26.96
2023-04-13T10:28:13.578Z,26.95
2023-04-13T10:29:14.066Z,26.95
2023-04-13T10:30:13.713Z,26.93
2023-04-13T10:31:14.323Z,26.93
2023-04-13T10:32:13.649Z,26.92
2023-04-13T10:33:13.668Z,26.92
2023-04-13T10:34:14.026Z,26.93
2023-04-13T10:35:13.690Z,26.93
2023-04-13T10:36:13.688Z,26.92
2023-04-13T10:37:13.716Z,26.93
2023-04-13T10:38:13.869Z,26.92
2023-04-13T10:39:16.813Z,26.96
2023-04-13T10:40:13.931Z,26.92
2023-04-13T10:41:13.834Z,26.93
2023-04-13T10:42:14.212Z,26.92
2023-04-13T10:43:13.832Z,26.95
2023-04-13T10:44:13.903Z,26.98
2023-04-13T10:45:14.228Z,26.96
2023-04-13T10:46:14.022Z,26.93
2023-04-13T10:47:15.697Z,26.96
2023-04-13T10:48:14.014Z,26.95
2023-04-13T10:49:15.708Z,26.98
2023-04-13T10:50:14.017Z,26.96
2023-04-13T10:51:14.049Z,26.96
2023-04-13T10:52:14.022Z,26.96
2023-04-13T10:53:14.040Z,26.96
2023-04-13T10:54:14.074Z,26.95
2023-04-13T10:55:14.159Z,26.98
2023-04-13T10:56:14.301Z,26.98
2023-04-13T10:57:14.109Z,27.00
2023-04-13T10:58:15.179Z,27.00
2023-04-13T10:59:14.304Z,27.02
2023-04-13T11:00:14.267Z,27.02
2023-04-13T11:01:14.261Z,27.05
2023-04-13T11:02:14.307Z,27.03
2023-04-13T11:03:14.414Z,27.06
2023-04-13T11:04:17.776Z,27.02
2023-04-13T11:05:14.428Z,27.03
2023-04-13T11:06:15.220Z,27.02
2023-04-13T11:07:14.494Z,27.05
2023-04-13T11:08:14.481Z,27.02
2023-04-13T11:09:16.770Z,27.02
2023-04-13T11:10:14.699Z,27.03
2023-04-13T11:11:15.137Z,27.05
2023-04-13T11:12:14.748Z,27.02
2023-04-13T11:13:14.674Z,26.99
2023-04-13T11:14:14.633Z,26.96
2023-04-13T11:15:15.671Z,26.93
2023-04-13T11:16:14.737Z,26.86
2023-04-13T11:17:14.695Z,26.82
2023-04-13T11:18:14.687Z,26.82
2023-04-13T11:19:14.683Z,26.79
2023-04-13T11:20:14.850Z,26.75
2023-04-13T11:21:14.810Z,26.75
2023-04-13T11:22:14.797Z,26.72
2023-04-13T11:23:14.838Z,26.70
2023-04-13T11:24:14.941Z,26.64
2023-04-13T11:25:14.896Z,26.64
2023-04-13T11:26:14.875Z,26.64
2023-04-13T11:27:14.824Z,26.62
2023-04-13T11:28:14.891Z,26.65
2023-04-13T11:29:14.864Z,26.68
2023-04-13T11:30:14.900Z,26.74
2023-04-13T11:31:14.929Z,26.78
2023-04-13T11:32:15.998Z,26.79
2023-04-13T11:33:15.088Z,26.81
2023-04-13T11:34:15.148Z,26.83
2023-04-13T11:35:15.273Z,26.86
2023-04-13T11:36:15.230Z,26.90
2023-04-13T11:37:15.243Z,26.93
2023-04-13T11:38:15.243Z,26.95
2023-04-13T11:39:15.251Z,26.95
2023-04-13T11:40:15.316Z,26.95
2023-04-13T11:41:16.888Z,26.99
2023-04-13T11:42:15.352Z,26.98
2023-04-13T11:43:15.569Z,26.99
2023-04-13T11:44:15.504Z,27.00
2023-04-13T11:45:15.464Z,26.99
2023-04-13T11:46:15.963Z,27.02
2023-04-13T11:47:15.601Z,27.00
2023-04-13T11:48:15.601Z,27.00
2023-04-13T11:49:15.660Z,27.02
2023-04-13T11:50:15.931Z,27.03
2023-04-13T11:51:15.809Z,27.03
2023-04-13T11:52:17.688Z,27.03
2023-04-13T11:53:15.822Z,27.03
2023-04-13T11:54:15.912Z,27.05
2023-04-13T11:55:23.209Z,27.05
2023-04-13T11:56:17.003Z,27.06
2023-04-13T11:57:16.051Z,27.06
2023-04-13T11:58:16.196Z,27.07
2023-04-13T11:59:16.070Z,27.05
2023-04-13T12:00:16.038Z,27.03
2023-04-13T12:01:23.367Z,27.03
2023-04-13T12:02:22.638Z,27.05
2023-04-13T12:03:34.685Z,27.03
2023-04-13T12:04:17.292Z,27.03
2023-04-13T12:05:16.387Z,27.02
2023-04-13T12:06:16.536Z,27.03
2023-04-13T12:07:16.604Z,27.00
2023-04-13T12:08:16.551Z,27.03
2023-04-13T12:09:17.867Z,27.02
2023-04-13T12:10:23.144Z,27.03
2023-04-13T12:11:40.465Z,27.05
2023-04-13T12:12:50.529Z,27.03
2023-04-13T12:13:22.857Z,27.00
2023-04-13T12:14:29.425Z,27.02
2023-04-13T12:16:18.340Z,27.03
2023-04-13T12:18:18.109Z,27.02
2023-04-13T12:19:19.240Z,27.02
2023-04-13T12:20:16.683Z,27.03
2023-04-13T12:21:16.827Z,27.03
2023-04-13T12:22:17.581Z,27.05
2023-04-13T12:23:22.279Z,27.03
2023-04-13T12:24:18.918Z,27.05
2023-04-13T12:25:17.773Z,27.06
2023-04-13T12:26:49.868Z,27.06
2023-04-13T12:27:19.145Z,27.05
2023-04-13T12:28:16.774Z,27.03
2023-04-13T12:29:16.728Z,27.05
2023-04-13T12:30:16.773Z,27.06
2023-04-13T12:31:16.813Z,27.03
2023-04-13T12:32:17.227Z,27.03
2023-04-13T12:33:16.837Z,27.05
2023-04-13T12:34:16.920Z,27.05
2023-04-13T12:35:16.911Z,27.03
2023-04-13T12:36:16.859Z,27.06
2023-04-13T12:37:16.871Z,27.05
2023-04-13T12:38:16.924Z,27.06
2023-04-13T12:39:16.905Z,27.05
2023-04-13T12:40:16.977Z,27.06
2023-04-13T12:41:16.936Z,27.06
2023-04-13T12:42:16.959Z,27.07
2023-04-13T12:43:16.964Z,27.07
2023-04-13T12:44:17.033Z,27.09
2023-04-13T12:45:17.059Z,27.09
2023-04-13T12:46:17.122Z,27.09
2023-04-13T12:47:17.191Z,27.07
2023-04-13T12:48:17.210Z,27.07
2023-04-13T12:49:17.176Z,27.10
2023-04-13T12:50:17.239Z,27.10
2023-04-13T12:51:17.312Z,27.11
2023-04-13T12:52:17.415Z,27.11
2023-04-13T12:53:17.466Z,27.10
2023-04-13T12:54:17.486Z,27.13
2023-04-13T12:55:17.524Z,27.11